Cumberland Municipal Airport

KUBE · Wisconsin, United States

METAR history KUBE · Cumberland Municipal Airport

Below you see METARs of the last few days. Select a year to browse through older METARs, from the year 2007 onwards.

March 2, 2024

Time Code Weather Temp. Visibility Ceiling Wind METAR/SPECI
19:15
V
10 °C 10 mi - 110° 110° 6 kt METAR KUBE 030115Z AUTO 11006KT 10SM CLR 10/02 A2976 RMK AO2
18:55
V
10 °C 10 mi - 110° 110° 7 kt METAR KUBE 030055Z AUTO 11007KT 10SM CLR 10/02 A2976 RMK AO2
18:35
V
11 °C 10 mi - 120° 120° 7 kt METAR KUBE 030035Z AUTO 12007KT 10SM CLR 11/02 A2976 RMK AO2
18:15
V
11 °C 10 mi - 120° 120° 7 kt METAR KUBE 030015Z AUTO 12007KT 10SM CLR 11/02 A2977 RMK AO2
17:55
V
11 °C 10 mi - 120° 120° 6 kt METAR KUBE 022355Z AUTO 12006KT 10SM CLR 11/02 A2977 RMK AO2
17:35
V
11 °C 10 mi - 140° 140° 8 kt METAR KUBE 022335Z AUTO 14008KT 10SM CLR 11/02 A2977 RMK AO2
17:15
V
12 °C 10 mi - 140° 140° 9 kt METAR KUBE 022315Z AUTO 14009KT 10SM CLR 12/02 A2978 RMK AO2
16:55
V
13 °C 10 mi - 140° 140° 10 kt METAR KUBE 022255Z AUTO 14010KT 10SM CLR 13/02 A2978 RMK AO2
16:35
V
13 °C 10 mi - 150° 150° 9 kt METAR KUBE 022235Z AUTO 15009KT 10SM CLR 13/02 A2978 RMK AO2
16:15
V
14 °C 10 mi - 150° 150° 9 kt METAR KUBE 022215Z AUTO 15009KT 10SM CLR 14/03 A2978 RMK AO2
15:55
V
14 °C 10 mi - 150° 150° 9 kt METAR KUBE 022155Z AUTO 15009KT 10SM CLR 14/03 A2978 RMK AO2
15:35
V
14 °C 10 mi - 160° 160° 12 - 16 kt METAR KUBE 022135Z AUTO 16012G16KT 10SM CLR 14/03 A2979 RMK AO2
15:15
V
13 °C 10 mi - 150° 150° 10 kt METAR KUBE 022115Z AUTO 15010KT 10SM CLR 13/03 A2980 RMK AO2
14:55
V
14 °C 10 mi - 150° 150° 10 kt METAR KUBE 022055Z AUTO 15010KT 10SM CLR 14/03 A2980 RMK AO2
14:35
V
13 °C 10 mi - 160° 160° 13 kt METAR KUBE 022035Z AUTO 16013KT 10SM CLR 13/03 A2981 RMK AO2
14:15
V
13 °C 10 mi - 160° 160° 13 kt METAR KUBE 022015Z AUTO 16013KT 10SM CLR 13/03 A2981 RMK AO2
13:55
V
13 °C 10 mi - 150° 150° 14 - 18 kt METAR KUBE 021955Z AUTO 15014G18KT 10SM CLR 13/03 A2981 RMK AO2
13:35
V
12 °C 10 mi - 160° 160° 13 kt METAR KUBE 021935Z AUTO 16013KT 10SM CLR 12/03 A2981 RMK AO2
13:15
V
12 °C 10 mi - 140° 140° 12 kt METAR KUBE 021915Z AUTO 14012KT 10SM CLR 12/03 A2982 RMK AO2
12:55
V
11 °C 10 mi - 130° 130° 8 kt METAR KUBE 021855Z AUTO 13008KT 10SM CLR 11/03 A2984 RMK AO2
12:35
V
10 °C 10 mi - 150° 150° 8 kt METAR KUBE 021835Z AUTO 15008KT 10SM CLR 10/02 A2984 RMK AO2
12:15
V
8 °C 10 mi - 130° 130° 9 kt METAR KUBE 021815Z AUTO 13009KT 10SM CLR 08/02 A2984 RMK AO2
11:55
V
8 °C 10 mi - 130° 130° 8 kt METAR KUBE 021755Z AUTO 13008KT 10SM CLR 08/02 A2986 RMK AO2
11:35
V
7 °C 10 mi - 110° 110° 6 kt METAR KUBE 021735Z AUTO 11006KT 10SM CLR 07/02 A2986 RMK AO2
11:15
V
7 °C 10 mi - 140° 140° 8 kt METAR KUBE 021715Z AUTO 14008KT 10SM CLR 07/01 A2987 RMK AO2
10:55
V
7 °C 10 mi - 140° 140° 8 kt METAR KUBE 021655Z AUTO 14008KT 10SM CLR 07/01 A2988 RMK AO2
10:35
V
6 °C 10 mi - 130° 130° 7 kt METAR KUBE 021635Z AUTO 13007KT 10SM CLR 06/01 A2988 RMK AO2
10:15
V
6 °C 10 mi - 150° 150° 5 kt METAR KUBE 021615Z AUTO 15005KT 10SM CLR 06/01 A2989 RMK AO2
09:55
V
6 °C 10 mi - 160° 160° 6 kt METAR KUBE 021555Z AUTO 16006KT 10SM CLR 06/01 A2989 RMK AO2
09:35
V
5 °C 10 mi - 140° 140° 6 kt METAR KUBE 021535Z AUTO 14006KT 10SM CLR 05/01 A2989 RMK AO2
09:15
V
5 °C 10 mi - 150° 150° 5 kt METAR KUBE 021515Z AUTO 15005KT 10SM CLR 05/01 A2989 RMK AO2
08:55
V
4 °C 10 mi - 140° 140° 6 kt METAR KUBE 021455Z AUTO 14006KT 10SM CLR 04/01 A2989 RMK AO2
08:35
V
3 °C 10 mi - 130° 130° 6 kt METAR KUBE 021435Z AUTO 13006KT 10SM CLR 03/00 A2989 RMK AO2
08:15
V
2 °C 10 mi - 130° 130° 4 kt METAR KUBE 021415Z AUTO 13004KT 10SM CLR 02/00 A2990 RMK AO2
07:55
V
2 °C 10 mi - 130° 130° 4 kt METAR KUBE 021355Z AUTO 13004KT 10SM CLR 02/00 A2991 RMK AO2
07:35
V
1 °C 10 mi - 360° 360° 0 kt METAR KUBE 021335Z AUTO 00000KT 10SM CLR 01/00 A2991 RMK AO2
07:15
V
0 °C 10 mi - 150° 150° 4 kt METAR KUBE 021315Z AUTO 15004KT 10SM CLR 00/00 A2990 RMK AO2
06:55
V
0 °C 10 mi - 130° 130° 5 kt METAR KUBE 021255Z AUTO 13005KT 10SM CLR 00/00 A2989 RMK AO2
06:35
V
0 °C 10 mi - 120° 120° 5 kt METAR KUBE 021235Z AUTO 12005KT 10SM CLR 00/00 A2989 RMK AO2
06:15
V
0 °C 10 mi - 120° 120° 4 kt METAR KUBE 021215Z AUTO 12004KT 10SM CLR 00/M01 A2989 RMK AO2
05:55
V
0 °C 10 mi - 100° 100° 3 kt METAR KUBE 021155Z AUTO 10003KT 10SM CLR 00/00 A2989 RMK AO2
05:35
V
0 °C 10 mi - 110° 110° 3 kt METAR KUBE 021135Z AUTO 11003KT 10SM CLR 00/M01 A2988 RMK AO2
05:15
V
1 °C 10 mi - 360° 360° 0 kt METAR KUBE 021115Z AUTO 00000KT 10SM CLR 01/00 A2989 RMK AO2
04:55
V
1 °C 10 mi - 360° 360° 0 kt METAR KUBE 021055Z AUTO 00000KT 10SM CLR 01/M01 A2988 RMK AO2
04:35
V
1 °C 10 mi - 160° 160° 4 kt METAR KUBE 021035Z AUTO 16004KT 10SM CLR 01/00 A2988 RMK AO2
04:15
V
2 °C 10 mi - 140° 140° 4 kt METAR KUBE 021015Z AUTO 14004KT 10SM CLR 02/00 A2986 RMK AO2
03:55
V
2 °C 10 mi - 150° 150° 3 kt METAR KUBE 020955Z AUTO 15003KT 10SM CLR 02/00 A2986 RMK AO2
03:35
V
1 °C 10 mi - 150° 150° 4 kt METAR KUBE 020935Z AUTO 15004KT 10SM CLR 01/00 A2986 RMK AO2
03:15
V
2 °C 10 mi - 150° 150° 5 kt METAR KUBE 020915Z AUTO 15005KT 10SM CLR 02/00 A2986 RMK AO2
02:55
V
2 °C 10 mi - 150° 150° 4 kt METAR KUBE 020855Z AUTO 15004KT 10SM CLR 02/00 A2986 RMK AO2
02:35
V
2 °C 10 mi - 170° 170° 6 kt METAR KUBE 020835Z AUTO 17006KT 10SM CLR 02/00 A2986 RMK AO2
02:15
V
3 °C 10 mi - 150° 150° 4 kt METAR KUBE 020815Z AUTO 15004KT 10SM CLR 03/00 A2986 RMK AO2
01:55
V
3 °C 10 mi - 150° 150° 5 kt METAR KUBE 020755Z AUTO 15005KT 10SM CLR 03/00 A2986 RMK AO2
01:35
V
2 °C 10 mi - 160° 160° 6 kt METAR KUBE 020735Z AUTO 16006KT 10SM CLR 02/00 A2986 RMK AO2
01:15
V
2 °C 10 mi - 160° 160° 5 kt METAR KUBE 020715Z AUTO 16005KT 10SM CLR 02/00 A2986 RMK AO2
00:55
V
2 °C 10 mi - 170° 170° 5 kt METAR KUBE 020655Z AUTO 17005KT 10SM CLR 02/00 A2986 RMK AO2
00:35
V
2 °C 10 mi - 170° 170° 5 kt METAR KUBE 020635Z AUTO 17005KT 10SM CLR 02/00 A2986 RMK AO2
00:15
V
3 °C 10 mi - 170° 170° 4 kt METAR KUBE 020615Z AUTO 17004KT 10SM CLR 03/00 A2986 RMK AO2

March 1, 2024

Time Code Weather Temp. Visibility Ceiling Wind METAR/SPECI
23:55
V
3 °C 10 mi - 170° 170° 7 kt METAR KUBE 020555Z AUTO 17007KT 10SM CLR 03/00 A2985 RMK AO2
23:35
V
3 °C 10 mi - 170° 170° 6 kt METAR KUBE 020535Z AUTO 17006KT 10SM CLR 03/00 A2985 RMK AO2
23:15
V
3 °C 10 mi - 170° 170° 6 kt METAR KUBE 020515Z AUTO 17006KT 10SM CLR 03/00 A2986 RMK AO2
22:55
V
4 °C 10 mi - 170° 170° 7 kt METAR KUBE 020455Z AUTO 17007KT 10SM CLR 04/00 A2986 RMK AO2
22:35
V
3 °C 10 mi - 170° 170° 8 kt METAR KUBE 020435Z AUTO 17008KT 10SM CLR 03/00 A2986 RMK AO2
22:15
V
4 °C 10 mi - 180° 180° 6 kt METAR KUBE 020415Z AUTO 18006KT 10SM CLR 04/00 A2985 RMK AO2
21:55
V
5 °C 10 mi - 160° 160° 6 kt METAR KUBE 020355Z AUTO 16006KT 10SM CLR 05/00 A2985 RMK AO2
21:35
V
4 °C 10 mi - 160° 160° 7 kt METAR KUBE 020335Z AUTO 16007KT 10SM CLR 04/00 A2984 RMK AO2
21:15
V
5 °C 10 mi - 170° 170° 9 kt METAR KUBE 020315Z AUTO 17009KT 10SM CLR 05/00 A2984 RMK AO2
20:55
V
4 °C 10 mi - 170° 170° 9 kt METAR KUBE 020255Z AUTO 17009KT 10SM CLR 04/00 A2984 RMK AO2
20:35
V
5 °C 10 mi - 180° 180° 9 kt METAR KUBE 020235Z AUTO 18009KT 10SM CLR 05/00 A2984 RMK AO2
20:15
V
5 °C 10 mi - 170° 170° 8 kt METAR KUBE 020215Z AUTO 17008KT 10SM CLR 05/00 A2983 RMK AO2
19:55
V
5 °C 10 mi - 170° 170° 8 kt METAR KUBE 020155Z AUTO 17008KT 10SM CLR 05/00 A2983 RMK AO2
19:35
V
5 °C 10 mi - 160° 160° 7 kt METAR KUBE 020135Z AUTO 16007KT 10SM CLR 05/00 A2983 RMK AO2
19:15
V
5 °C 10 mi - 180° 180° 7 kt METAR KUBE 020115Z AUTO 18007KT 10SM CLR 05/00 A2983 RMK AO2
18:55
V
6 °C 10 mi - 190° 190° 9 kt METAR KUBE 020055Z AUTO 19009KT 10SM CLR 06/00 A2982 RMK AO2
18:35
V
7 °C 10 mi - 190° 190° 10 kt METAR KUBE 020035Z AUTO 19010KT 10SM CLR 07/00 A2981 RMK AO2
18:15
V
8 °C 10 mi - 190° 190° 12 kt METAR KUBE 020015Z AUTO 19012KT 10SM CLR 08/00 A2981 RMK AO2
17:55
V
9 °C 10 mi - 190° 190° 14 - 19 kt METAR KUBE 012355Z AUTO 19014G19KT 10SM CLR 09/00 A2980 RMK AO2
17:35
V
10 °C 10 mi - 190° 190° 14 kt METAR KUBE 012335Z AUTO 19014KT 10SM CLR 10/01 A2979 RMK AO2
17:15
V
11 °C 10 mi - 190° 190° 14 kt METAR KUBE 012315Z AUTO 19014KT 10SM CLR 11/01 A2979 RMK AO2
16:55
V
11 °C 10 mi - 190° 190° 16 - 26 kt METAR KUBE 012255Z AUTO 19016G26KT 10SM CLR 11/01 A2979 RMK AO2
16:35
V
12 °C 10 mi - 190° 190° 17 - 23 kt METAR KUBE 012235Z AUTO 19017G23KT 10SM CLR 12/01 A2978 RMK AO2
16:15
V
12 °C 10 mi - 190° 190° 17 - 25 kt METAR KUBE 012215Z AUTO 19017G25KT 10SM CLR 12/01 A2978 RMK AO2
15:55
V
12 °C 10 mi - 190° 190° 14 - 22 kt METAR KUBE 012155Z AUTO 19014G22KT 10SM CLR 12/01 A2979 RMK AO2
15:35
V
12 °C 10 mi - 190° 190° 17 - 22 kt METAR KUBE 012135Z AUTO 19017G22KT 10SM CLR 12/01 A2978 RMK AO2
15:15
V
12 °C 10 mi - 180° 180° 18 - 22 kt METAR KUBE 012115Z AUTO 18018G22KT 10SM CLR 12/01 A2980 RMK AO2
14:55
V
12 °C 10 mi - 180° 180° 16 - 22 kt METAR KUBE 012055Z AUTO 18016G22KT 10SM CLR 12/01 A2979 RMK AO2
14:35
V
12 °C 10 mi - 190° 190° 21 - 26 kt METAR KUBE 012035Z AUTO 19021G26KT 10SM CLR 12/01 A2979 RMK AO2
14:15
V
12 °C 10 mi - 190° 190° 19 - 24 kt METAR KUBE 012015Z AUTO 19019G24KT 10SM CLR 12/01 A2979 RMK AO2
13:55
V
12 °C 10 mi - 190° 190° 13 - 22 kt METAR KUBE 011955Z AUTO 19013G22KT 10SM CLR 12/01 A2980 RMK AO2
13:35
V
12 °C 10 mi - 180° 180° 15 - 21 kt METAR KUBE 011935Z AUTO 18015G21KT 10SM CLR 12/00 A2981 RMK AO2
13:15
V
11 °C 10 mi - 190° 190° 15 - 20 kt METAR KUBE 011915Z AUTO 19015G20KT 10SM CLR 11/00 A2981 RMK AO2
12:55
V
10 °C 10 mi - 170° 170° 17 - 22 kt METAR KUBE 011855Z AUTO 17017G22KT 10SM CLR 10/00 A2981 RMK AO2
12:35
V
10 °C 10 mi - 180° 180° 17 - 23 kt METAR KUBE 011835Z AUTO 18017G23KT 10SM CLR 10/00 A2981 RMK AO2
12:15
V
10 °C 10 mi - 180° 180° 15 kt METAR KUBE 011815Z AUTO 18015KT 10SM CLR 10/M01 A2982 RMK AO2
11:50
V
9 °C 10 mi - 190° 190° 18 kt METAR KUBE 011750Z AUTO 19018KT 10SM CLR 09/M01 A2983 RMK AO2
11:35
V
8 °C 10 mi - 170° 170° 16 - 22 kt METAR KUBE 011735Z AUTO 17016G22KT 10SM CLR 08/M01 A2983 RMK AO2
11:15
V
8 °C 10 mi - 170° 170° 19 kt METAR KUBE 011715Z AUTO 17019KT 10SM CLR 08/M02 A2982 RMK AO2
10:55
V
7 °C 10 mi - 170° 170° 16 kt METAR KUBE 011655Z AUTO 17016KT 10SM CLR 07/M02 A2983 RMK AO2
10:35
V
7 °C 10 mi - 170° 170° 19 kt METAR KUBE 011635Z AUTO 17019KT 10SM CLR 07/M02 A2983 RMK AO2
10:15
V
6 °C 10 mi - 170° 170° 14 kt METAR KUBE 011615Z AUTO 17014KT 10SM CLR 06/M03 A2984 RMK AO2
09:55
V
6 °C 10 mi - 170° 170° 14 - 22 kt METAR KUBE 011555Z AUTO 17014G22KT 10SM CLR 06/M03 A2984 RMK AO2
09:35
V
5 °C 10 mi - 180° 180° 16 - 20 kt METAR KUBE 011535Z AUTO 18016G20KT 10SM CLR 05/M04 A2984 RMK AO2
09:15
V
5 °C 10 mi - 190° 190° 14 - 19 kt METAR KUBE 011515Z AUTO 19014G19KT 10SM CLR 05/M05 A2985 RMK AO2
08:55
V
4 °C 10 mi - 180° 180° 17 kt METAR KUBE 011455Z AUTO 18017KT 10SM CLR 04/M06 A2985 RMK AO2
08:35
V
4 °C 10 mi - 180° 180° 14 - 19 kt METAR KUBE 011435Z AUTO 18014G19KT 10SM CLR 04/M06 A2986 RMK AO2
08:10
V
3 °C 10 mi - 170° 170° 14 kt METAR KUBE 011410Z AUTO 17014KT 10SM CLR 03/M06 A2986 RMK AO2
07:55
V
3 °C 10 mi - 180° 180° 13 kt METAR KUBE 011355Z AUTO 18013KT 10SM CLR 03/M06 A2986 RMK AO2
07:35
V
2 °C 10 mi - 170° 170° 10 kt METAR KUBE 011335Z AUTO 17010KT 10SM CLR 02/M07 A2987 RMK AO2
07:15
V
1 °C 10 mi - 170° 170° 9 kt METAR KUBE 011315Z AUTO 17009KT 10SM CLR 01/M07 A2986 RMK AO2
06:55
V
1 °C 10 mi - 170° 170° 9 kt METAR KUBE 011255Z AUTO 17009KT 10SM CLR 01/M07 A2986 RMK AO2
06:35
V
1 °C 10 mi - 160° 160° 8 kt METAR KUBE 011235Z AUTO 16008KT 10SM CLR 01/M07 A2986 RMK AO2
06:15
V
0 °C 10 mi - 160° 160° 8 kt METAR KUBE 011215Z AUTO 16008KT 10SM CLR 00/M07 A2986 RMK AO2
05:55
V
1 °C 10 mi - 170° 170° 9 kt METAR KUBE 011155Z AUTO 17009KT 10SM CLR 01/M07 A2987 RMK AO2
05:35
V
1 °C 10 mi - 170° 170° 9 kt METAR KUBE 011135Z AUTO 17009KT 10SM CLR 01/M07 A2987 RMK AO2
05:15
V
1 °C 10 mi - 170° 170° 9 kt METAR KUBE 011115Z AUTO 17009KT 10SM CLR 01/M07 A2988 RMK AO2
04:55
V
1 °C 10 mi - 170° 170° 10 kt METAR KUBE 011055Z AUTO 17010KT 10SM CLR 01/M07 A2988 RMK AO2
04:35
V
2 °C 10 mi - 170° 170° 10 kt METAR KUBE 011035Z AUTO 17010KT 10SM CLR 02/M07 A2988 RMK AO2
04:15
V
2 °C 10 mi - 170° 170° 10 kt METAR KUBE 011015Z AUTO 17010KT 10SM CLR 02/M07 A2988 RMK AO2
03:55
V
2 °C 10 mi - 170° 170° 10 kt METAR KUBE 010955Z AUTO 17010KT 10SM CLR 02/M07 A2988 RMK AO2
03:35
V
2 °C 10 mi - 170° 170° 10 kt METAR KUBE 010935Z AUTO 17010KT 10SM CLR 02/M07 A2988 RMK AO2
03:15
V
2 °C 10 mi - 170° 170° 9 kt METAR KUBE 010915Z AUTO 17009KT 10SM CLR 02/M07 A2989 RMK AO2
02:55
V
2 °C 10 mi - 170° 170° 9 kt METAR KUBE 010855Z AUTO 17009KT 10SM CLR 02/M07 A2989 RMK AO2
02:35
V
2 °C 10 mi - 170° 170° 9 kt METAR KUBE 010835Z AUTO 17009KT 10SM CLR 02/M06 A2990 RMK AO2
02:15
V
2 °C 10 mi - 170° 170° 9 kt METAR KUBE 010815Z AUTO 17009KT 10SM CLR 02/M06 A2991 RMK AO2
01:55
V
2 °C 10 mi - 160° 160° 8 kt METAR KUBE 010755Z AUTO 16008KT 10SM CLR 02/M06 A2991 RMK AO2
01:35
V
2 °C 10 mi - 170° 170° 8 kt METAR KUBE 010735Z AUTO 17008KT 10SM CLR 02/M06 A2992 RMK AO2
01:15
V
2 °C 10 mi - 170° 170° 9 kt METAR KUBE 010715Z AUTO 17009KT 10SM CLR 02/M06 A2992 RMK AO2
00:55
V
2 °C 10 mi - 170° 170° 9 kt METAR KUBE 010655Z AUTO 17009KT 10SM CLR 02/M06 A2993 RMK AO2
00:35
V
3 °C 10 mi - 160° 160° 9 kt METAR KUBE 010635Z AUTO 16009KT 10SM CLR 03/M06 A2993 RMK AO2
00:15
V
3 °C 10 mi - 170° 170° 9 kt METAR KUBE 010615Z AUTO 17009KT 10SM CLR 03/M06 A2993 RMK AO2

February 29, 2024

Time Code Weather Temp. Visibility Ceiling Wind METAR/SPECI
23:55
V
3 °C 10 mi - 170° 170° 11 kt METAR KUBE 010555Z AUTO 17011KT 10SM CLR 03/M06 A2993 RMK AO2
23:35
V
3 °C 10 mi - 170° 170° 11 kt METAR KUBE 010535Z AUTO 17011KT 10SM CLR 03/M06 A2993 RMK AO2
23:15
V
3 °C 10 mi - 170° 170° 11 - 15 kt METAR KUBE 010515Z AUTO 17011G15KT 10SM CLR 03/M06 A2993 RMK AO2
22:55
V
3 °C 10 mi - 170° 170° 12 kt METAR KUBE 010455Z AUTO 17012KT 10SM CLR 03/M06 A2993 RMK AO2
22:35
V
2 °C 10 mi - 170° 170° 9 kt METAR KUBE 010435Z AUTO 17009KT 10SM CLR 02/M06 A2994 RMK AO2
22:15
V
2 °C 10 mi - 160° 160° 7 kt METAR KUBE 010415Z AUTO 16007KT 10SM CLR 02/M06 A2995 RMK AO2
21:55
V
2 °C 10 mi - 150° 150° 8 kt METAR KUBE 010355Z AUTO 15008KT 10SM CLR 02/M06 A2994 RMK AO2
21:35
V
1 °C 10 mi - 150° 150° 7 kt METAR KUBE 010335Z AUTO 15007KT 10SM CLR 01/M05 A2995 RMK AO2
21:15
V
2 °C 10 mi - 140° 140° 8 kt METAR KUBE 010315Z AUTO 14008KT 10SM CLR 02/M05 A2996 RMK AO2
20:55
V
2 °C 10 mi - 130° 130° 7 kt METAR KUBE 010255Z AUTO 13007KT 10SM CLR 02/M05 A2996 RMK AO2
20:35
V
1 °C 10 mi - 130° 130° 7 kt METAR KUBE 010235Z AUTO 13007KT 10SM CLR 01/M06 A2995 RMK AO2
20:15
V
1 °C 10 mi - 130° 130° 6 kt METAR KUBE 010215Z AUTO 13006KT 10SM CLR 01/M06 A2996 RMK AO2
19:55
V
1 °C 10 mi - 120° 120° 4 kt METAR KUBE 010155Z AUTO 12004KT 10SM CLR 01/M06 A2996 RMK AO2
19:35
V
1 °C 10 mi - 110° 110° 3 kt METAR KUBE 010135Z AUTO 11003KT 10SM CLR 01/M06 A2997 RMK AO2
19:15
V
2 °C 10 mi - 090° 090° 7 kt METAR KUBE 010115Z AUTO 09007KT 10SM CLR 02/M06 A2997 RMK AO2
18:55
V
2 °C 10 mi - 090° 090° 8 kt METAR KUBE 010055Z AUTO 09008KT 10SM CLR 02/M06 A2998 RMK AO2
18:35
V
1 °C 10 mi - 090° 090° 5 kt METAR KUBE 010035Z AUTO 09005KT 10SM CLR 01/M06 A2998 RMK AO2
18:15
V
1 °C 10 mi - 080° 080° 6 kt METAR KUBE 010015Z AUTO 08006KT 10SM CLR 01/M05 A2997 RMK AO2
17:55
V
2 °C 10 mi - 090° 090° 4 kt METAR KUBE 292355Z AUTO 09004KT 10SM CLR 02/M05 A2998 RMK AO2
17:35
V
3 °C 10 mi - 090° 090° 6 kt METAR KUBE 292335Z AUTO 09006KT 10SM CLR 03/M06 A2998 RMK AO2
17:15
V
3 °C 10 mi - 100° 100° 6 kt METAR KUBE 292315Z AUTO 10006KT 10SM CLR 03/M06 A2998 RMK AO2
16:55
V
3 °C 10 mi - 110° 110° 5 kt METAR KUBE 292255Z AUTO 11005KT 10SM CLR 03/M07 A2999 RMK AO2
16:35
V
3 °C 10 mi - 110° 110° 5 kt METAR KUBE 292235Z AUTO 11005KT 10SM CLR 03/M06 A3000 RMK AO2
16:15
V
3 °C 10 mi - 120° 120° 7 kt METAR KUBE 292215Z AUTO 12007KT 10SM CLR 03/M06 A3000 RMK AO2
15:55
V
3 °C 10 mi - 130° 130° 7 kt METAR KUBE 292155Z AUTO 13007KT 10SM CLR 03/M07 A3001 RMK AO2
15:35
V
3 °C 10 mi - 140° 140° 8 kt METAR KUBE 292135Z AUTO 14008KT 10SM CLR 03/M07 A3002 RMK AO2
15:15
V
3 °C 10 mi - 130° 130° 9 kt METAR KUBE 292115Z AUTO 13009KT 10SM CLR 03/M07 A3003 RMK AO2
14:55
V
2 °C 10 mi - 140° 140° 9 kt METAR KUBE 292055Z AUTO 14009KT 10SM CLR 02/M07 A3005 RMK AO2
14:35
V
2 °C 10 mi - 120° 120° 9 kt METAR KUBE 292035Z AUTO 12009KT 10SM CLR 02/M07 A3005 RMK AO2
14:15
V
2 °C 10 mi - 150° 150° 11 - 16 kt METAR KUBE 292015Z AUTO 15011G16KT 10SM CLR 02/M08 A3007 RMK AO2
13:55
V
1 °C 10 mi - 160° 160° 12 - 17 kt METAR KUBE 291955Z AUTO 16012G17KT 10SM CLR 01/M08 A3008 RMK AO2
13:35
V
0 °C 10 mi - 150° 150° 11 kt METAR KUBE 291935Z AUTO 15011KT 10SM CLR 00/M09 A3009 RMK AO2
13:15
V
0 °C 10 mi - 160° 160° 14 kt METAR KUBE 291915Z AUTO 16014KT 10SM CLR 00/M10 A3010 RMK AO2
12:55
V
0 °C 10 mi - 140° 140° 14 kt METAR KUBE 291855Z AUTO 14014KT 10SM CLR 00/M10 A3011 RMK AO2
12:35
V
-1 °C 10 mi - 140° 140° 12 - 20 kt METAR KUBE 291835Z AUTO 14012G20KT 10SM CLR M01/M11 A3011 RMK AO2
12:15
V
-1 °C 10 mi - 140° 140° 12 - 20 kt METAR KUBE 291815Z AUTO 14012G20KT 10SM CLR M01/M11 A3013 RMK AO2
11:55
V
-2 °C 10 mi - 140° 140° 12 - 18 kt METAR KUBE 291755Z AUTO 14012G18KT 10SM CLR M02/M12 A3015 RMK AO2
11:35
V
-2 °C 10 mi - 140° 140° 12 kt METAR KUBE 291735Z AUTO 14012KT 10SM CLR M02/M12 A3016 RMK AO2
11:15
V
-3 °C 10 mi - 140° 140° 10 kt METAR KUBE 291715Z AUTO 14010KT 10SM CLR M03/M12 A3017 RMK AO2
10:55
V
-3 °C 10 mi - 140° 140° 10 kt METAR KUBE 291655Z AUTO 14010KT 10SM CLR M03/M13 A3019 RMK AO2
10:35
V
-5 °C 10 mi - 130° 130° 10 kt METAR KUBE 291635Z AUTO 13010KT 10SM CLR M05/M14 A3019 RMK AO2
10:15
V
-6 °C 10 mi - 120° 120° 10 kt METAR KUBE 291615Z AUTO 12010KT 10SM CLR M06/M15 A3021 RMK AO2
09:55
V
-6 °C 10 mi - 130° 130° 7 kt METAR KUBE 291555Z AUTO 13007KT 10SM CLR M06/M15 A3022 RMK AO2
09:35
V
-7 °C 10 mi - 130° 130° 8 kt METAR KUBE 291535Z AUTO 13008KT 10SM CLR M07/M15 A3023 RMK AO2
09:15
V
-7 °C 10 mi - 140° 140° 9 kt METAR KUBE 291515Z AUTO 14009KT 10SM CLR M07/M16 A3024 RMK AO2
08:55
V
-8 °C 10 mi - 130° 130° 11 - 15 kt METAR KUBE 291455Z AUTO 13011G15KT 10SM SCT095 M08/M16 A3024 RMK AO2
08:35
V
-10 °C 10 mi 9,500 ft 140° 140° 10 kt METAR KUBE 291435Z AUTO 14010KT 10SM OVC095 M10/M17 A3025 RMK AO2
08:15
V
-10 °C 10 mi 9,500 ft 140° 140° 10 kt METAR KUBE 291415Z AUTO 14010KT 10SM OVC095 M10/M17 A3026 RMK AO2
07:55
V
-11 °C 10 mi 9,500 ft 130° 130° 7 kt METAR KUBE 291355Z AUTO 13007KT 10SM OVC095 M11/M17 A3026 RMK AO2
07:35
V
-11 °C 10 mi 9,500 ft 130° 130° 7 kt METAR KUBE 291335Z AUTO 13007KT 10SM BKN095 M11/M17 A3026 RMK AO2
07:15
V
-12 °C 10 mi - 130° 130° 6 kt METAR KUBE 291315Z AUTO 13006KT 10SM SCT095 M12/M17 A3026 RMK AO2
06:55
V
-12 °C 10 mi - 130° 130° 6 kt METAR KUBE 291255Z AUTO 13006KT 10SM CLR M12/M17 A3026 RMK AO2
06:35
V
-13 °C 10 mi - 130° 130° 5 kt METAR KUBE 291235Z AUTO 13005KT 10SM CLR M13/M17 A3025 RMK AO2
06:15
V
-13 °C 10 mi - 360° 360° 0 kt METAR KUBE 291215Z AUTO 00000KT 10SM CLR M13/M17 A3025 RMK AO2
05:55
V
-13 °C 10 mi - 150° 150° 3 kt METAR KUBE 291155Z AUTO 15003KT 10SM CLR M13/M17 A3025 RMK AO2
05:35
V
-13 °C 10 mi - 160° 160° 4 kt METAR KUBE 291135Z AUTO 16004KT 10SM CLR M13/M17 A3025 RMK AO2
05:15
V
-14 °C 10 mi - 080° 080° 7 kt METAR KUBE 291115Z AUTO 08007KT 10SM CLR M14/M17 A3024 RMK AO2
04:55
V
-15 °C 10 mi - 070° 070° 6 kt METAR KUBE 291055Z AUTO 07006KT 10SM CLR M15/M17 A3025 RMK AO2
04:35
V
-15 °C 10 mi - 080° 080° 3 kt METAR KUBE 291035Z AUTO 08003KT 10SM CLR M15/M17 A3025 RMK AO2
04:15
V
-15 °C 10 mi - 360° 360° 0 kt METAR KUBE 291015Z AUTO 00000KT 10SM CLR M15/M17 A3026 RMK AO2
03:55
V
-15 °C 10 mi - 360° 360° 0 kt METAR KUBE 290955Z AUTO 00000KT 10SM CLR M15/M17 A3027 RMK AO2
03:35
V
-15 °C 10 mi - 360° 360° 0 kt METAR KUBE 290935Z AUTO 00000KT 10SM CLR M15/M17 A3028 RMK AO2
03:15
V
-14 °C 10 mi - 360° 360° 0 kt METAR KUBE 290915Z AUTO 00000KT 10SM CLR M14/M17 A3028 RMK AO2
02:55
V
-15 °C 10 mi - 360° 360° 0 kt METAR KUBE 290855Z AUTO 00000KT 10SM CLR M15/M17 A3028 RMK AO2
02:35
V
-15 °C 10 mi - 360° 360° 0 kt METAR KUBE 290835Z AUTO 00000KT 10SM CLR M15/M17 A3028 RMK AO2
02:15
V
-14 °C 10 mi - 360° 360° 0 kt METAR KUBE 290815Z AUTO 00000KT 10SM CLR M14/M17 A3028 RMK AO2
01:55
V
-14 °C 10 mi - 360° 360° 0 kt METAR KUBE 290755Z AUTO 00000KT 10SM CLR M14/M18 A3027 RMK AO2
01:35
V
-13 °C 10 mi - 360° 360° 0 kt METAR KUBE 290735Z AUTO 00000KT 10SM CLR M13/M18 A3028 RMK AO2
01:15
V
-13 °C 10 mi - 360° 360° 0 kt METAR KUBE 290715Z AUTO 00000KT 10SM CLR M13/M18 A3027 RMK AO2
00:55
V
-15 °C 10 mi - 360° 360° 0 kt METAR KUBE 290655Z AUTO 00000KT 10SM CLR M15/M17 A3027 RMK AO2
00:35
V
-13 °C 10 mi - 220° 220° 3 kt METAR KUBE 290635Z AUTO 22003KT 10SM CLR M13/M18 A3027 RMK AO2
00:15
V
-13 °C 10 mi - 240° 240° 3 kt METAR KUBE 290615Z AUTO 24003KT 10SM CLR M13/M18 A3027 RMK AO2

February 28, 2024

Time Code Weather Temp. Visibility Ceiling Wind METAR/SPECI
23:55
V
-12 °C 10 mi - 260° 260° 3 kt METAR KUBE 290555Z AUTO 26003KT 10SM CLR M12/M17 A3026 RMK AO2